sensor_id;sensor_type;location;lat;lon;timestamp;P1;durP1;ratioP1;P2;durP2;ratioP2
10041;SDS011;5061;49.068;12.058;2022-11-20T00:00:19;18.00;;;9.67;;
10041;SDS011;5061;49.068;12.058;2022-11-20T00:03:40;16.30;;;9.13;;
10041;SDS011;5061;49.068;12.058;2022-11-20T00:07:01;17.03;;;8.93;;
10041;SDS011;5061;49.068;12.058;2022-11-20T00:10:21;17.77;;;9.83;;
10041;SDS011;5061;49.068;12.058;2022-11-20T00:13:42;19.87;;;10.50;;
10041;SDS011;5061;49.068;12.058;2022-11-20T00:17:03;19.60;;;10.20;;
10041;SDS011;5061;49.068;12.058;2022-11-20T00:20:24;20.67;;;10.37;;
10041;SDS011;5061;49.068;12.058;2022-11-20T00:23:45;19.43;;;10.10;;
10041;SDS011;5061;49.068;12.058;2022-11-20T00:27:05;14.27;;;8.77;;
10041;SDS011;5061;49.068;12.058;2022-11-20T00:30:26;16.43;;;8.57;;
10041;SDS011;5061;49.068;12.058;2022-11-20T00:33:46;16.40;;;9.20;;
10041;SDS011;5061;49.068;12.058;2022-11-20T00:37:07;13.70;;;7.33;;
10041;SDS011;5061;49.068;12.058;2022-11-20T00:40:28;11.90;;;6.97;;
10041;SDS011;5061;49.068;12.058;2022-11-20T00:43:48;13.53;;;7.63;;
10041;SDS011;5061;49.068;12.058;2022-11-20T00:47:10;16.90;;;9.00;;
10041;SDS011;5061;49.068;12.058;2022-11-20T00:50:31;15.70;;;8.73;;
10041;SDS011;5061;49.068;12.058;2022-11-20T00:53:52;17.33;;;9.60;;
10041;SDS011;5061;49.068;12.058;2022-11-20T00:57:15;17.60;;;9.50;;
10041;SDS011;5061;49.068;12.058;2022-11-20T01:00:35;16.00;;;9.03;;
10041;SDS011;5061;49.068;12.058;2022-11-20T01:04:13;13.77;;;8.23;;
10041;SDS011;5061;49.068;12.058;2022-11-20T01:07:44;19.70;;;9.10;;
10041;SDS011;5061;49.068;12.058;2022-11-20T01:11:06;15.70;;;8.63;;
10041;SDS011;5061;49.068;12.058;2022-11-20T01:14:30;15.77;;;7.63;;
10041;SDS011;5061;49.068;12.058;2022-11-20T01:17:53;16.50;;;8.07;;
10041;SDS011;5061;49.068;12.058;2022-11-20T01:21:14;18.57;;;9.00;;
10041;SDS011;5061;49.068;12.058;2022-11-20T01:24:37;15.70;;;8.53;;
10041;SDS011;5061;49.068;12.058;2022-11-20T01:27:58;20.47;;;9.77;;
10041;SDS011;5061;49.068;12.058;2022-11-20T01:31:20;19.90;;;10.00;;
10041;SDS011;5061;49.068;12.058;2022-11-20T01:34:42;17.70;;;8.90;;
10041;SDS011;5061;49.068;12.058;2022-11-20T01:38:02;14.60;;;7.67;;
10041;SDS011;5061;49.068;12.058;2022-11-20T01:41:27;18.43;;;8.43;;
10041;SDS011;5061;49.068;12.058;2022-11-20T01:56:08;18.30;;;8.70;;
10041;SDS011;5061;49.068;12.058;2022-11-20T01:59:31;13.93;;;6.83;;
10041;SDS011;5061;49.068;12.058;2022-11-20T02:03:00;13.13;;;8.03;;
10041;SDS011;5061;49.068;12.058;2022-11-20T02:09:55;13.17;;;6.30;;
10041;SDS011;5061;49.068;12.058;2022-11-20T02:13:16;14.00;;;7.60;;
10041;SDS011;5061;49.068;12.058;2022-11-20T02:16:55;19.03;;;9.30;;
10041;SDS011;5061;49.068;12.058;2022-11-20T02:20:16;15.40;;;9.00;;
10041;SDS011;5061;49.068;12.058;2022-11-20T02:27:16;15.47;;;8.50;;
10041;SDS011;5061;49.068;12.058;2022-11-20T02:30:37;15.80;;;9.10;;
10041;SDS011;5061;49.068;12.058;2022-11-20T02:33:58;17.90;;;9.63;;
10041;SDS011;5061;49.068;12.058;2022-11-20T02:37:18;16.23;;;8.80;;
10041;SDS011;5061;49.068;12.058;2022-11-20T02:40:40;13.90;;;7.10;;
10041;SDS011;5061;49.068;12.058;2022-11-20T02:44:01;18.33;;;8.50;;
10041;SDS011;5061;49.068;12.058;2022-11-20T02:47:23;11.60;;;6.60;;
10041;SDS011;5061;49.068;12.058;2022-11-20T02:50:44;11.93;;;6.23;;
10041;SDS011;5061;49.068;12.058;2022-11-20T02:54:04;13.87;;;7.50;;
10041;SDS011;5061;49.068;12.058;2022-11-20T02:57:25;11.30;;;6.23;;
10041;SDS011;5061;49.068;12.058;2022-11-20T03:00:45;15.17;;;7.77;;
10041;SDS011;5061;49.068;12.058;2022-11-20T03:04:06;13.93;;;7.17;;
10041;SDS011;5061;49.068;12.058;2022-11-20T03:07:27;17.90;;;9.00;;
10041;SDS011;5061;49.068;12.058;2022-11-20T03:10:47;17.80;;;8.07;;
10041;SDS011;5061;49.068;12.058;2022-11-20T03:14:08;13.77;;;7.53;;
10041;SDS011;5061;49.068;12.058;2022-11-20T03:17:28;12.57;;;7.50;;
10041;SDS011;5061;49.068;12.058;2022-11-20T03:20:56;18.97;;;9.23;;
10041;SDS011;5061;49.068;12.058;2022-11-20T03:24:18;16.67;;;8.90;;
10041;SDS011;5061;49.068;12.058;2022-11-20T03:27:38;14.70;;;8.83;;
10041;SDS011;5061;49.068;12.058;2022-11-20T03:31:04;13.00;;;7.67;;
10041;SDS011;5061;49.068;12.058;2022-11-20T03:34:29;14.10;;;7.40;;
10041;SDS011;5061;49.068;12.058;2022-11-20T03:37:49;15.07;;;7.70;;
10041;SDS011;5061;49.068;12.058;2022-11-20T03:41:11;16.03;;;8.20;;
10041;SDS011;5061;49.068;12.058;2022-11-20T03:44:37;20.30;;;9.30;;
10041;SDS011;5061;49.068;12.058;2022-11-20T03:47:57;12.40;;;7.30;;
10041;SDS011;5061;49.068;12.058;2022-11-20T03:54:38;15.13;;;7.67;;
10041;SDS011;5061;49.068;12.058;2022-11-20T03:57:59;14.60;;;7.50;;
10041;SDS011;5061;49.068;12.058;2022-11-20T04:01:21;14.17;;;8.67;;
10041;SDS011;5061;49.068;12.058;2022-11-20T04:04:43;15.80;;;7.10;;
10041;SDS011;5061;49.068;12.058;2022-11-20T04:08:04;14.03;;;7.10;;
10041;SDS011;5061;49.068;12.058;2022-11-20T04:11:28;14.60;;;7.90;;
10041;SDS011;5061;49.068;12.058;2022-11-20T04:14:50;15.00;;;7.83;;
10041;SDS011;5061;49.068;12.058;2022-11-20T04:18:11;13.17;;;7.30;;
10041;SDS011;5061;49.068;12.058;2022-11-20T04:21:31;14.50;;;6.87;;
10041;SDS011;5061;49.068;12.058;2022-11-20T04:24:52;13.20;;;7.60;;
10041;SDS011;5061;49.068;12.058;2022-11-20T04:28:13;15.37;;;7.40;;
10041;SDS011;5061;49.068;12.058;2022-11-20T04:31:34;14.80;;;7.90;;
10041;SDS011;5061;49.068;12.058;2022-11-20T04:34:54;14.10;;;7.60;;
10041;SDS011;5061;49.068;12.058;2022-11-20T04:38:15;13.47;;;7.50;;
10041;SDS011;5061;49.068;12.058;2022-11-20T04:41:36;13.80;;;7.53;;
10041;SDS011;5061;49.068;12.058;2022-11-20T04:44:56;11.10;;;6.40;;
10041;SDS011;5061;49.068;12.058;2022-11-20T04:48:17;16.60;;;8.17;;
10041;SDS011;5061;49.068;12.058;2022-11-20T04:51:38;14.67;;;7.67;;
10041;SDS011;5061;49.068;12.058;2022-11-20T04:54:58;15.37;;;8.23;;
10041;SDS011;5061;49.068;12.058;2022-11-20T04:58:19;16.20;;;8.40;;
10041;SDS011;5061;49.068;12.058;2022-11-20T05:01:39;16.90;;;8.23;;
10041;SDS011;5061;49.068;12.058;2022-11-20T05:05:00;15.50;;;7.80;;
10041;SDS011;5061;49.068;12.058;2022-11-20T05:08:21;17.97;;;8.90;;
10041;SDS011;5061;49.068;12.058;2022-11-20T05:11:41;16.27;;;8.37;;
10041;SDS011;5061;49.068;12.058;2022-11-20T05:15:02;17.57;;;9.50;;
10041;SDS011;5061;49.068;12.058;2022-11-20T05:18:23;20.27;;;9.40;;
10041;SDS011;5061;49.068;12.058;2022-11-20T05:21:43;17.83;;;8.50;;
10041;SDS011;5061;49.068;12.058;2022-11-20T05:25:04;20.03;;;10.17;;
10041;SDS011;5061;49.068;12.058;2022-11-20T05:28:25;17.40;;;9.47;;
10041;SDS011;5061;49.068;12.058;2022-11-20T05:31:47;17.20;;;8.77;;
10041;SDS011;5061;49.068;12.058;2022-11-20T05:35:07;18.63;;;9.20;;
10041;SDS011;5061;49.068;12.058;2022-11-20T05:38:28;18.63;;;9.77;;
10041;SDS011;5061;49.068;12.058;2022-11-20T05:41:49;17.17;;;9.23;;
10041;SDS011;5061;49.068;12.058;2022-11-20T05:45:29;18.07;;;8.87;;
10041;SDS011;5061;49.068;12.058;2022-11-20T05:48:50;18.70;;;10.03;;
10041;SDS011;5061;49.068;12.058;2022-11-20T05:52:11;17.97;;;8.60;;
10041;SDS011;5061;49.068;12.058;2022-11-20T05:55:31;19.00;;;9.03;;
10041;SDS011;5061;49.068;12.058;2022-11-20T05:58:52;21.90;;;10.83;;
10041;SDS011;5061;49.068;12.058;2022-11-20T06:02:12;16.13;;;8.90;;
10041;SDS011;5061;49.068;12.058;2022-11-20T06:05:33;17.83;;;8.70;;
10041;SDS011;5061;49.068;12.058;2022-11-20T06:08:54;20.53;;;9.77;;
10041;SDS011;5061;49.068;12.058;2022-11-20T06:12:15;15.43;;;7.63;;
10041;SDS011;5061;49.068;12.058;2022-11-20T06:15:36;16.67;;;8.70;;
10041;SDS011;5061;49.068;12.058;2022-11-20T06:18:56;17.50;;;8.83;;
10041;SDS011;5061;49.068;12.058;2022-11-20T06:22:17;19.73;;;9.07;;
10041;SDS011;5061;49.068;12.058;2022-11-20T06:25:41;19.23;;;9.00;;
10041;SDS011;5061;49.068;12.058;2022-11-20T06:29:03;16.60;;;8.40;;
10041;SDS011;5061;49.068;12.058;2022-11-20T06:32:23;18.77;;;9.60;;
10041;SDS011;5061;49.068;12.058;2022-11-20T06:35:44;19.73;;;9.83;;
10041;SDS011;5061;49.068;12.058;2022-11-20T06:39:04;16.63;;;8.60;;
10041;SDS011;5061;49.068;12.058;2022-11-20T06:42:25;17.37;;;9.10;;
10041;SDS011;5061;49.068;12.058;2022-11-20T06:45:52;19.70;;;10.23;;
10041;SDS011;5061;49.068;12.058;2022-11-20T06:49:13;19.70;;;10.50;;
10041;SDS011;5061;49.068;12.058;2022-11-20T06:52:34;19.70;;;9.70;;
10041;SDS011;5061;49.068;12.058;2022-11-20T06:55:55;21.13;;;9.90;;
10041;SDS011;5061;49.068;12.058;2022-11-20T06:59:17;16.77;;;7.97;;
10041;SDS011;5061;49.068;12.058;2022-11-20T07:02:38;16.23;;;7.43;;
10041;SDS011;5061;49.068;12.058;2022-11-20T07:05:58;15.13;;;8.20;;
10041;SDS011;5061;49.068;12.058;2022-11-20T07:09:20;22.57;;;10.20;;
10041;SDS011;5061;49.068;12.058;2022-11-20T07:12:41;16.07;;;8.87;;
10041;SDS011;5061;49.068;12.058;2022-11-20T07:16:02;17.17;;;9.10;;
10041;SDS011;5061;49.068;12.058;2022-11-20T07:19:25;19.13;;;8.90;;
10041;SDS011;5061;49.068;12.058;2022-11-20T07:22:45;17.67;;;8.90;;
10041;SDS011;5061;49.068;12.058;2022-11-20T07:26:07;11.90;;;6.07;;
10041;SDS011;5061;49.068;12.058;2022-11-20T07:29:29;16.10;;;7.80;;
10041;SDS011;5061;49.068;12.058;2022-11-20T07:32:53;14.37;;;7.73;;
10041;SDS011;5061;49.068;12.058;2022-11-20T07:36:15;14.43;;;7.80;;
10041;SDS011;5061;49.068;12.058;2022-11-20T07:39:35;17.43;;;8.47;;
10041;SDS011;5061;49.068;12.058;2022-11-20T07:42:56;19.73;;;9.33;;
10041;SDS011;5061;49.068;12.058;2022-11-20T07:46:17;19.20;;;10.00;;
10041;SDS011;5061;49.068;12.058;2022-11-20T07:49:37;19.73;;;9.33;;
10041;SDS011;5061;49.068;12.058;2022-11-20T07:53:04;20.53;;;10.07;;
10041;SDS011;5061;49.068;12.058;2022-11-20T07:56:25;14.90;;;7.87;;
10041;SDS011;5061;49.068;12.058;2022-11-20T07:59:45;16.20;;;8.93;;
10041;SDS011;5061;49.068;12.058;2022-11-20T08:03:06;13.00;;;7.30;;
10041;SDS011;5061;49.068;12.058;2022-11-20T08:06:27;12.97;;;7.60;;
10041;SDS011;5061;49.068;12.058;2022-11-20T08:09:48;10.47;;;6.27;;
10041;SDS011;5061;49.068;12.058;2022-11-20T08:13:08;10.50;;;6.13;;
10041;SDS011;5061;49.068;12.058;2022-11-20T08:16:48;8.90;;;5.50;;
10041;SDS011;5061;49.068;12.058;2022-11-20T08:20:09;11.30;;;5.37;;
10041;SDS011;5061;49.068;12.058;2022-11-20T08:23:30;8.13;;;4.83;;
10041;SDS011;5061;49.068;12.058;2022-11-20T08:26:51;9.17;;;5.47;;
10041;SDS011;5061;49.068;12.058;2022-11-20T08:30:12;12.23;;;6.93;;
10041;SDS011;5061;49.068;12.058;2022-11-20T08:33:33;11.23;;;7.00;;
10041;SDS011;5061;49.068;12.058;2022-11-20T08:36:53;13.70;;;6.93;;
10041;SDS011;5061;49.068;12.058;2022-11-20T08:40:14;14.20;;;7.57;;
10041;SDS011;5061;49.068;12.058;2022-11-20T08:43:35;15.63;;;8.50;;
10041;SDS011;5061;49.068;12.058;2022-11-20T08:46:55;15.43;;;8.63;;
10041;SDS011;5061;49.068;12.058;2022-11-20T08:50:16;22.77;;;11.03;;
10041;SDS011;5061;49.068;12.058;2022-11-20T08:53:45;17.00;;;9.80;;
10041;SDS011;5061;49.068;12.058;2022-11-20T08:57:08;22.83;;;11.30;;
10041;SDS011;5061;49.068;12.058;2022-11-20T09:00:29;33.03;;;14.37;;
10041;SDS011;5061;49.068;12.058;2022-11-20T09:03:49;26.13;;;12.53;;
10041;SDS011;5061;49.068;12.058;2022-11-20T09:07:10;22.80;;;11.00;;
10041;SDS011;5061;49.068;12.058;2022-11-20T09:10:30;24.53;;;11.13;;
10041;SDS011;5061;49.068;12.058;2022-11-20T09:13:52;18.43;;;9.53;;
10041;SDS011;5061;49.068;12.058;2022-11-20T09:17:12;21.53;;;10.20;;
10041;SDS011;5061;49.068;12.058;2022-11-20T09:20:37;22.70;;;11.27;;
10041;SDS011;5061;49.068;12.058;2022-11-20T09:24:01;11.97;;;6.27;;
10041;SDS011;5061;49.068;12.058;2022-11-20T09:27:22;8.53;;;5.53;;
10041;SDS011;5061;49.068;12.058;2022-11-20T09:30:43;11.73;;;6.40;;
10041;SDS011;5061;49.068;12.058;2022-11-20T09:34:03;7.63;;;4.73;;
10041;SDS011;5061;49.068;12.058;2022-11-20T09:37:24;9.80;;;5.47;;
10041;SDS011;5061;49.068;12.058;2022-11-20T09:41:03;7.60;;;3.70;;
10041;SDS011;5061;49.068;12.058;2022-11-20T09:55:33;5.83;;;4.03;;
10041;SDS011;5061;49.068;12.058;2022-11-20T09:58:57;6.03;;;3.50;;
10041;SDS011;5061;49.068;12.058;2022-11-20T10:27:28;5.13;;;3.53;;
10041;SDS011;5061;49.068;12.058;2022-11-20T10:31:01;5.27;;;3.63;;
10041;SDS011;5061;49.068;12.058;2022-11-20T10:34:26;5.67;;;4.20;;
10041;SDS011;5061;49.068;12.058;2022-11-20T10:38:18;3.13;;;2.83;;
10041;SDS011;5061;49.068;12.058;2022-11-20T10:41:46;4.50;;;3.33;;
10041;SDS011;5061;49.068;12.058;2022-11-20T10:48:50;4.73;;;3.50;;
10041;SDS011;5061;49.068;12.058;2022-11-20T10:56:07;5.47;;;4.03;;
10041;SDS011;5061;49.068;12.058;2022-11-20T11:03:28;6.50;;;4.27;;
10041;SDS011;5061;49.068;12.058;2022-11-20T11:06:50;6.27;;;3.90;;
10041;SDS011;5061;49.068;12.058;2022-11-20T11:10:18;6.63;;;4.60;;
10041;SDS011;5061;49.068;12.058;2022-11-20T11:13:44;4.67;;;3.87;;
10041;SDS011;5061;49.068;12.058;2022-11-20T11:17:04;6.50;;;4.67;;
10041;SDS011;5061;49.068;12.058;2022-11-20T11:20:38;5.53;;;4.27;;
10041;SDS011;5061;49.068;12.058;2022-11-20T11:23:59;5.20;;;4.10;;
10041;SDS011;5061;49.068;12.058;2022-11-20T11:27:22;4.83;;;3.83;;
10041;SDS011;5061;49.068;12.058;2022-11-20T11:30:43;6.67;;;4.50;;
10041;SDS011;5061;49.068;12.058;2022-11-20T11:34:12;4.43;;;4.03;;
10041;SDS011;5061;49.068;12.058;2022-11-20T11:37:36;5.87;;;4.10;;
10041;SDS011;5061;49.068;12.058;2022-11-20T11:40:59;4.73;;;3.93;;
10041;SDS011;5061;49.068;12.058;2022-11-20T11:44:21;7.17;;;3.90;;
10041;SDS011;5061;49.068;12.058;2022-11-20T11:48:07;7.63;;;4.17;;
10041;SDS011;5061;49.068;12.058;2022-11-20T11:51:56;7.70;;;3.77;;
10041;SDS011;5061;49.068;12.058;2022-11-20T11:55:33;4.53;;;3.50;;
10041;SDS011;5061;49.068;12.058;2022-11-20T11:58:55;4.50;;;3.83;;
10041;SDS011;5061;49.068;12.058;2022-11-20T12:02:25;4.60;;;4.00;;
10041;SDS011;5061;49.068;12.058;2022-11-20T12:06:00;4.80;;;4.03;;
10041;SDS011;5061;49.068;12.058;2022-11-20T12:09:27;5.57;;;3.83;;
10041;SDS011;5061;49.068;12.058;2022-11-20T12:13:12;4.80;;;3.63;;
10041;SDS011;5061;49.068;12.058;2022-11-20T12:16:37;2.83;;;2.60;;
10041;SDS011;5061;49.068;12.058;2022-11-20T12:19:59;4.90;;;2.83;;
10041;SDS011;5061;49.068;12.058;2022-11-20T12:30:30;4.87;;;3.73;;
10041;SDS011;5061;49.068;12.058;2022-11-20T12:33:58;5.80;;;3.40;;
10041;SDS011;5061;49.068;12.058;2022-11-20T12:45:10;3.23;;;2.60;;
10041;SDS011;5061;49.068;12.058;2022-11-20T12:49:32;3.87;;;3.30;;
10041;SDS011;5061;49.068;12.058;2022-11-20T12:52:51;5.93;;;3.20;;
10041;SDS011;5061;49.068;12.058;2022-11-20T13:06:47;3.30;;;3.00;;
10041;SDS011;5061;49.068;12.058;2022-11-20T13:10:21;3.33;;;3.00;;
10041;SDS011;5061;49.068;12.058;2022-11-20T13:18:04;2.90;;;2.60;;
10041;SDS011;5061;49.068;12.058;2022-11-20T13:21:19;4.57;;;2.80;;
10041;SDS011;5061;49.068;12.058;2022-11-20T13:24:49;3.73;;;2.67;;
10041;SDS011;5061;49.068;12.058;2022-11-20T13:31:32;5.53;;;3.17;;
10041;SDS011;5061;49.068;12.058;2022-11-20T13:34:56;2.47;;;2.00;;
10041;SDS011;5061;49.068;12.058;2022-11-20T13:38:18;2.63;;;2.33;;
10041;SDS011;5061;49.068;12.058;2022-11-20T13:41:39;2.40;;;2.20;;
10041;SDS011;5061;49.068;12.058;2022-11-20T13:45:01;3.33;;;2.93;;
10041;SDS011;5061;49.068;12.058;2022-11-20T13:48:46;3.00;;;2.67;;
10041;SDS011;5061;49.068;12.058;2022-11-20T13:56:08;2.23;;;2.03;;
10041;SDS011;5061;49.068;12.058;2022-11-20T14:03:14;4.93;;;3.30;;
10041;SDS011;5061;49.068;12.058;2022-11-20T14:06:42;3.97;;;2.83;;
10041;SDS011;5061;49.068;12.058;2022-11-20T14:10:05;3.00;;;2.70;;
10041;SDS011;5061;49.068;12.058;2022-11-20T14:13:26;3.47;;;2.20;;
10041;SDS011;5061;49.068;12.058;2022-11-20T14:16:47;7.50;;;2.43;;
10041;SDS011;5061;49.068;12.058;2022-11-20T14:20:12;5.57;;;2.77;;
10041;SDS011;5061;49.068;12.058;2022-11-20T14:23:35;2.73;;;2.47;;
10041;SDS011;5061;49.068;12.058;2022-11-20T14:26:56;3.17;;;2.70;;
10041;SDS011;5061;49.068;12.058;2022-11-20T14:30:23;2.77;;;2.23;;
10041;SDS011;5061;49.068;12.058;2022-11-20T14:34:04;2.60;;;2.40;;
10041;SDS011;5061;49.068;12.058;2022-11-20T14:37:25;2.00;;;1.90;;
10041;SDS011;5061;49.068;12.058;2022-11-20T14:40:50;3.40;;;2.20;;
10041;SDS011;5061;49.068;12.058;2022-11-20T14:44:11;4.20;;;2.40;;
10041;SDS011;5061;49.068;12.058;2022-11-20T14:47:31;3.10;;;2.50;;
10041;SDS011;5061;49.068;12.058;2022-11-20T14:50:53;2.83;;;2.63;;
10041;SDS011;5061;49.068;12.058;2022-11-20T14:54:17;2.80;;;2.50;;
10041;SDS011;5061;49.068;12.058;2022-11-20T14:57:38;1.83;;;1.70;;
10041;SDS011;5061;49.068;12.058;2022-11-20T15:01:00;2.60;;;2.27;;
10041;SDS011;5061;49.068;12.058;2022-11-20T15:04:24;1.40;;;1.30;;
10041;SDS011;5061;49.068;12.058;2022-11-20T15:07:46;1.50;;;1.40;;
10041;SDS011;5061;49.068;12.058;2022-11-20T15:11:16;2.17;;;1.80;;
10041;SDS011;5061;49.068;12.058;2022-11-20T15:14:39;2.40;;;2.10;;
10041;SDS011;5061;49.068;12.058;2022-11-20T15:18:00;2.07;;;1.87;;
10041;SDS011;5061;49.068;12.058;2022-11-20T15:21:21;2.13;;;1.90;;
10041;SDS011;5061;49.068;12.058;2022-11-20T15:24:41;2.23;;;1.80;;
10041;SDS011;5061;49.068;12.058;2022-11-20T15:28:02;12.00;;;5.63;;
10041;SDS011;5061;49.068;12.058;2022-11-20T15:31:24;9.90;;;5.37;;
10041;SDS011;5061;49.068;12.058;2022-11-20T15:34:45;9.13;;;5.40;;
10041;SDS011;5061;49.068;12.058;2022-11-20T15:38:05;8.27;;;4.70;;
10041;SDS011;5061;49.068;12.058;2022-11-20T15:41:26;7.83;;;4.97;;
10041;SDS011;5061;49.068;12.058;2022-11-20T15:44:47;4.10;;;3.33;;
10041;SDS011;5061;49.068;12.058;2022-11-20T15:48:09;5.07;;;3.13;;
10041;SDS011;5061;49.068;12.058;2022-11-20T15:51:56;3.30;;;2.33;;
10041;SDS011;5061;49.068;12.058;2022-11-20T15:55:17;3.30;;;2.27;;
10041;SDS011;5061;49.068;12.058;2022-11-20T15:58:38;5.37;;;2.80;;
10041;SDS011;5061;49.068;12.058;2022-11-20T16:01:59;3.13;;;2.70;;
10041;SDS011;5061;49.068;12.058;2022-11-20T16:05:19;2.40;;;2.20;;
10041;SDS011;5061;49.068;12.058;2022-11-20T16:08:45;4.30;;;3.00;;
10041;SDS011;5061;49.068;12.058;2022-11-20T16:12:07;3.77;;;2.90;;
10041;SDS011;5061;49.068;12.058;2022-11-20T16:15:55;3.53;;;2.97;;
10041;SDS011;5061;49.068;12.058;2022-11-20T16:19:18;4.33;;;3.37;;
10041;SDS011;5061;49.068;12.058;2022-11-20T16:22:38;5.10;;;3.80;;
10041;SDS011;5061;49.068;12.058;2022-11-20T16:25:59;4.17;;;2.93;;
10041;SDS011;5061;49.068;12.058;2022-11-20T16:29:28;5.50;;;3.33;;
10041;SDS011;5061;49.068;12.058;2022-11-20T16:32:49;3.00;;;2.70;;
10041;SDS011;5061;49.068;12.058;2022-11-20T16:36:10;3.23;;;2.80;;
10041;SDS011;5061;49.068;12.058;2022-11-20T16:39:32;2.80;;;2.33;;
10041;SDS011;5061;49.068;12.058;2022-11-20T16:42:52;3.03;;;2.13;;
10041;SDS011;5061;49.068;12.058;2022-11-20T16:46:14;2.53;;;1.70;;
10041;SDS011;5061;49.068;12.058;2022-11-20T16:49:35;2.33;;;1.90;;
10041;SDS011;5061;49.068;12.058;2022-11-20T16:52:56;1.40;;;1.30;;
10041;SDS011;5061;49.068;12.058;2022-11-20T16:56:17;1.63;;;1.53;;
10041;SDS011;5061;49.068;12.058;2022-11-20T16:59:39;2.10;;;1.70;;
10041;SDS011;5061;49.068;12.058;2022-11-20T17:03:00;3.27;;;2.13;;
10041;SDS011;5061;49.068;12.058;2022-11-20T17:06:22;2.40;;;2.03;;
10041;SDS011;5061;49.068;12.058;2022-11-20T17:09:44;3.90;;;3.20;;
10041;SDS011;5061;49.068;12.058;2022-11-20T17:13:05;3.60;;;2.73;;
10041;SDS011;5061;49.068;12.058;2022-11-20T17:16:26;12.00;;;6.73;;
10041;SDS011;5061;49.068;12.058;2022-11-20T17:19:46;7.97;;;5.87;;
10041;SDS011;5061;49.068;12.058;2022-11-20T17:23:07;5.60;;;4.40;;
10041;SDS011;5061;49.068;12.058;2022-11-20T17:26:28;4.20;;;3.47;;
10041;SDS011;5061;49.068;12.058;2022-11-20T17:29:48;4.43;;;3.40;;
10041;SDS011;5061;49.068;12.058;2022-11-20T17:33:09;3.80;;;3.37;;
10041;SDS011;5061;49.068;12.058;2022-11-20T17:36:30;3.77;;;3.13;;
10041;SDS011;5061;49.068;12.058;2022-11-20T17:39:51;4.00;;;3.47;;
10041;SDS011;5061;49.068;12.058;2022-11-20T17:43:11;6.50;;;3.90;;
10041;SDS011;5061;49.068;12.058;2022-11-20T17:46:32;5.10;;;3.43;;
10041;SDS011;5061;49.068;12.058;2022-11-20T17:49:54;5.80;;;4.13;;
10041;SDS011;5061;49.068;12.058;2022-11-20T17:53:14;5.57;;;3.37;;
10041;SDS011;5061;49.068;12.058;2022-11-20T17:56:35;6.53;;;4.33;;
10041;SDS011;5061;49.068;12.058;2022-11-20T18:00:14;7.33;;;4.57;;
10041;SDS011;5061;49.068;12.058;2022-11-20T18:03:36;5.07;;;4.03;;
10041;SDS011;5061;49.068;12.058;2022-11-20T18:06:57;4.43;;;3.60;;
10041;SDS011;5061;49.068;12.058;2022-11-20T18:10:18;5.80;;;3.70;;
10041;SDS011;5061;49.068;12.058;2022-11-20T18:13:39;4.03;;;3.00;;
10041;SDS011;5061;49.068;12.058;2022-11-20T18:17:19;4.07;;;3.00;;
10041;SDS011;5061;49.068;12.058;2022-11-20T18:20:40;4.57;;;3.30;;
10041;SDS011;5061;49.068;12.058;2022-11-20T18:24:00;4.13;;;3.00;;
10041;SDS011;5061;49.068;12.058;2022-11-20T18:27:21;3.70;;;2.30;;
10041;SDS011;5061;49.068;12.058;2022-11-20T18:30:42;2.47;;;2.20;;
10041;SDS011;5061;49.068;12.058;2022-11-20T18:34:03;2.13;;;1.93;;
10041;SDS011;5061;49.068;12.058;2022-11-20T18:37:24;2.40;;;2.20;;
10041;SDS011;5061;49.068;12.058;2022-11-20T18:40:44;2.03;;;1.80;;
10041;SDS011;5061;49.068;12.058;2022-11-20T18:44:10;2.47;;;1.87;;
10041;SDS011;5061;49.068;12.058;2022-11-20T18:47:51;2.57;;;1.70;;
10041;SDS011;5061;49.068;12.058;2022-11-20T18:51:11;2.50;;;2.07;;
10041;SDS011;5061;49.068;12.058;2022-11-20T18:54:35;1.87;;;1.70;;
10041;SDS011;5061;49.068;12.058;2022-11-20T18:57:55;1.67;;;1.57;;
10041;SDS011;5061;49.068;12.058;2022-11-20T19:01:19;1.80;;;1.57;;
10041;SDS011;5061;49.068;12.058;2022-11-20T19:04:40;2.30;;;2.00;;
10041;SDS011;5061;49.068;12.058;2022-11-20T19:08:01;2.80;;;2.33;;
10041;SDS011;5061;49.068;12.058;2022-11-20T19:11:21;2.23;;;2.03;;
10041;SDS011;5061;49.068;12.058;2022-11-20T19:14:42;2.13;;;1.73;;
10041;SDS011;5061;49.068;12.058;2022-11-20T19:18:02;1.90;;;1.80;;
10041;SDS011;5061;49.068;12.058;2022-11-20T19:21:23;1.57;;;1.40;;
10041;SDS011;5061;49.068;12.058;2022-11-20T19:24:44;2.17;;;1.97;;
10041;SDS011;5061;49.068;12.058;2022-11-20T19:28:05;3.20;;;2.03;;
10041;SDS011;5061;49.068;12.058;2022-11-20T19:31:26;2.53;;;2.33;;
10041;SDS011;5061;49.068;12.058;2022-11-20T19:34:46;2.33;;;2.10;;
10041;SDS011;5061;49.068;12.058;2022-11-20T19:38:07;2.60;;;2.40;;
10041;SDS011;5061;49.068;12.058;2022-11-20T19:41:29;3.87;;;2.47;;
10041;SDS011;5061;49.068;12.058;2022-11-20T19:44:50;3.40;;;2.60;;
10041;SDS011;5061;49.068;12.058;2022-11-20T19:48:11;4.50;;;3.00;;
10041;SDS011;5061;49.068;12.058;2022-11-20T19:51:33;5.73;;;2.80;;
10041;SDS011;5061;49.068;12.058;2022-11-20T19:54:54;3.53;;;2.67;;
10041;SDS011;5061;49.068;12.058;2022-11-20T19:58:15;2.33;;;1.83;;
10041;SDS011;5061;49.068;12.058;2022-11-20T20:01:35;4.50;;;2.37;;
10041;SDS011;5061;49.068;12.058;2022-11-20T20:04:56;2.70;;;2.13;;
10041;SDS011;5061;49.068;12.058;2022-11-20T20:08:17;2.73;;;2.43;;
10041;SDS011;5061;49.068;12.058;2022-11-20T20:11:38;3.20;;;2.50;;
10041;SDS011;5061;49.068;12.058;2022-11-20T20:14:59;2.77;;;2.40;;
10041;SDS011;5061;49.068;12.058;2022-11-20T20:18:19;2.70;;;2.30;;
10041;SDS011;5061;49.068;12.058;2022-11-20T20:21:40;4.07;;;2.77;;
10041;SDS011;5061;49.068;12.058;2022-11-20T20:25:01;3.53;;;2.57;;
10041;SDS011;5061;49.068;12.058;2022-11-20T20:28:22;4.47;;;3.10;;
10041;SDS011;5061;49.068;12.058;2022-11-20T20:31:42;3.30;;;3.00;;
10041;SDS011;5061;49.068;12.058;2022-11-20T20:35:03;3.30;;;2.97;;
10041;SDS011;5061;49.068;12.058;2022-11-20T20:38:24;4.17;;;3.27;;
10041;SDS011;5061;49.068;12.058;2022-11-20T20:41:45;5.37;;;3.97;;
10041;SDS011;5061;49.068;12.058;2022-11-20T20:45:07;5.90;;;4.03;;
10041;SDS011;5061;49.068;12.058;2022-11-20T20:48:29;5.77;;;4.50;;
10041;SDS011;5061;49.068;12.058;2022-11-20T20:51:50;3.70;;;2.70;;
10041;SDS011;5061;49.068;12.058;2022-11-20T20:55:11;5.70;;;3.93;;
10041;SDS011;5061;49.068;12.058;2022-11-20T20:58:31;5.30;;;3.50;;
10041;SDS011;5061;49.068;12.058;2022-11-20T21:01:52;4.23;;;3.47;;
10041;SDS011;5061;49.068;12.058;2022-11-20T21:05:12;4.53;;;3.83;;
10041;SDS011;5061;49.068;12.058;2022-11-20T21:08:33;4.10;;;3.27;;
10041;SDS011;5061;49.068;12.058;2022-11-20T21:11:54;5.67;;;3.57;;
10041;SDS011;5061;49.068;12.058;2022-11-20T21:15:15;5.10;;;3.77;;
10041;SDS011;5061;49.068;12.058;2022-11-20T21:18:36;3.63;;;3.30;;
10041;SDS011;5061;49.068;12.058;2022-11-20T21:21:57;6.43;;;3.77;;
10041;SDS011;5061;49.068;12.058;2022-11-20T21:25:22;6.00;;;3.77;;
10041;SDS011;5061;49.068;12.058;2022-11-20T21:28:42;7.23;;;4.37;;
10041;SDS011;5061;49.068;12.058;2022-11-20T21:32:03;5.60;;;4.07;;
10041;SDS011;5061;49.068;12.058;2022-11-20T21:35:24;6.90;;;4.10;;
10041;SDS011;5061;49.068;12.058;2022-11-20T21:38:44;3.83;;;3.30;;
10041;SDS011;5061;49.068;12.058;2022-11-20T21:42:06;4.33;;;3.27;;
10041;SDS011;5061;49.068;12.058;2022-11-20T21:45:26;4.30;;;3.13;;
10041;SDS011;5061;49.068;12.058;2022-11-20T21:48:47;4.73;;;3.40;;
10041;SDS011;5061;49.068;12.058;2022-11-20T21:52:08;6.50;;;4.50;;
10041;SDS011;5061;49.068;12.058;2022-11-20T21:55:28;4.90;;;3.77;;
10041;SDS011;5061;49.068;12.058;2022-11-20T21:58:49;5.40;;;3.90;;
10041;SDS011;5061;49.068;12.058;2022-11-20T22:02:12;6.97;;;3.77;;